NWS Home NWS Lubbock West Texas Mesonet                      Daily Summary For 05/11/2021

Latest   N   C   S   Daily Sum   3hrΔ   24hrΔ   Soil Data 
Site Map   24hr Precip   72hr Precip   Google Plot


Station Time of Last Max Temp Min Temp Max/Min Dew Pt. Max/Min RH 10m Avg Wind 2m Avg Wind Peak Gust @ 33ft (mph) Potential Evapotranspiration
mm/day or in/day
Rain Sum Solar Rad
MJ/m^2
% Clear Day Red Flag
Abernathy 5ENE 11:59 PM 84 69 70 /52 75 / 24 13.8  (E) 10.8 28.5 mph 114° @ 1224 AM 0.8 or 0.03 0.03 5.4 39.5 0
Adrian 6WSW 11:59 PM 84 69 70 /52 75 / 24 14.4  (E) 11.8 24.8 mph 120° @ 0156 AM 0.8 or 0.03 0.01 8.4 64.9 0
Aiken 3WSW 11:59 PM 84 69 70 /52 75 / 24 15.4  (E) 11.6 25.9 mph 57° @ 0939 PM 0.8 or 0.03 0.08 5 37.3 0
Amarillo 15NNW 11:59 PM 84 69 70 /52 75 / 24 13.6  (E) 10.9 28.7 mph 42° @ 0204 PM 1 or 0.04 0.01 5.8 45.3 0
Amarillo 7SSE 11:59 PM 84 69 70 /52 75 / 24 13.5  (E) 10.2 24.9 mph 95° @ 1203 AM 0.8 or 0.03 0.03 4.4 33.7 0
Amarillo 9NNE 11:59 PM 84 69 70 /52 75 / 24 11.8  (E) 9.4 22.2 mph 95° @ 1206 AM 0.8 or 0.03 0.05 4.7 36.8 0
Amherst 1NE 11:59 PM 84 69 70 /52 75 / 24 14.3  (E) 11.3 30.7 mph 101° @ 1207 AM 1 or 0.04 0.01 6.7 49.6 0
Andrews 2E 11:59 PM 84 69 70 /52 75 / 24 11.4  (E) 6.6 26.3 mph 55° @ 0833 PM 1.8 or 0.07 0.00 9.8 68.9 0
Anton 6SSW 11:55 PM 84 69 70 /52 75 / 24 15.4  (E) 12.5 28.7 mph 107° @ 1245 AM 1 or 0.04 0.01 5.8 42.7 0
Aspermont 3NE 11:59 PM 84 69 70 /52 75 / 24 8.9  (E) 6 23 mph 23° @ 1015 PM 1 or 0.04 0.57 5 36.4 0
Big Bend NP - Castolon 11:59 PM 84 69 70 /52 75 / 24 9.4  (W) 7.6 36.5 mph 32° @ 0940 PM 5.3 or 0.21 0.00 29.3 187.3 0
Big Bend NP - Persimmon Gap 11:59 PM 84 69 70 /52 75 / 24 13.6  (NE) 11.2 40.3 mph 31° @ 0811 PM 6.4 or 0.25 0.00 26.1 168.3 0
Big Lake 1WNW 11:59 PM 84 69 70 /52 75 / 24 9.9  (E) 8 24.4 mph 30° @ 0829 PM 2 or 0.08 0.00 14.1 95.3 0
Bootleg 11WNW 11:59 PM 84 69 70 /52 75 / 24 13.8  (E) 10.9 27.8 mph 103° @ 1208 AM 0.5 or 0.02 0.06 5.2 39.1 0
Borger 7E 11:59 PM 84 69 70 /52 75 / 24 12.2  (E) 9.2 25.2 mph 48° @ 1220 PM 1 or 0.04 0.01 6.2 49 0
Boys Ranch 1WSW 11:59 PM 84 69 70 /52 75 / 24 11.1  (E) 9.3 23.2 mph 105° @ 1234 AM 1 or 0.04 0.00 6.5 50.6 0
Brownfield 2S 11:59 PM 84 69 70 /52 75 / 24 14.4  (E) 11.7 30.7 mph 53° @ 0830 PM 0.8 or 0.03 0.37 6.6 47.6 0
Canadian 6E 11:59 PM 84 69 70 /52 75 / 24 11.7  (NE) 8.8 25.9 mph 40° @ 1221 PM 1 or 0.04 0.05 7.7 61.6 0
Caprock Canyons State Park 11:59 PM 84 69 70 /52 75 / 24 8.6  (E) 5.7 21.5 mph 80° @ 0949 PM 0.8 or 0.03 0.10 3.9 29.6 0
Childress 2NNE 11:55 PM 84 69 70 /52 75 / 24 12.1  (E) 8.6 28.5 mph 39° @ 0910 AM 1 or 0.04 0.13 4.5 33.9 0
Clarendon 2WSW 11:55 PM 84 69 70 /52 75 / 24 14  (E) 10.4 25.4 mph 34° @ 0235 PM 1 or 0.04 0.06 5.2 40.1 0
Claude 12SW 11:59 PM 84 69 70 /52 75 / 24 14.1  (E) 10.5 26.1 mph 37° @ 0946 PM 0.8 or 0.03 0.07 6 46.2 0
Clyde 2WNW 11:59 PM 84 69 70 /52 75 / 24 10.4  (E) 7.5 27.7 mph 105° @ 1200 PM 1.3 or 0.05 0.51 8.5 60 0
Colorado City 5NW 11:59 PM 84 69 70 /52 75 / 24 11.8  (E) 8 27.1 mph 43° @ 1047 PM 1.3 or 0.05 0.01 8.3 58.7 0
Comanche Springs 11:59 PM 84 69 70 /52 75 / 24 9.9  (E) 7.6 34 mph 74° @ 0932 AM 1 or 0.04 0.31 4.4 32.8 0
Coyanosa 2N 11:59 PM 84 69 70 /52 75 / 24 11.5  (NE) 8 30.7 mph 63° @ 0711 PM 4.3 or 0.17 0.00 28.9 196.3 0
Crane 1NNW 11:59 PM 84 69 70 /52 75 / 24 14.1  (E) 12 30.2 mph 71° @ 0705 PM 3.3 or 0.13 0.00 22.6 154.5 0
Crowell 1E 11:59 PM 84 69 70 /52 75 / 24 13  (E) 10 31.9 mph 106° @ 0959 AM 1 or 0.04 0.44 4.4 33.2 0
Dell City 11:59 PM 84 69 70 /52 75 / 24 7.5  (SE) 4.7 37.6 mph 270° @ 0355 AM 3.3 or 0.13 0.00 30 206.4 0
Denver City 7WNW 11:55 PM 84 69 70 /52 75 / 24 13  (SE) 9.5 26.5 mph 66° @ 0720 PM 1 or 0.04 0.14 7.8 55.5 0
Dimmitt 2NE 11:55 PM 84 69 70 /52 75 / 24 15.5  (E) 12.4 26.7 mph 102° @ 1240 AM 1 or 0.04 0.03 6.7 50.6 0
Doole 3WNW 11:59 PM 84 69 70 /52 75 / 24 9.3  (NE) 7.9 30.2 mph 92° @ 1236 PM 1.3 or 0.05 1.04 6.7 46.2 0
Dora NM 2SW 11:55 PM 84 69 70 /52 75 / 24 14.6  (SE) 10.9 35.2 mph 132° @ 1220 AM 1.3 or 0.05 0.02 9.1 66.6 0
Dozier 3W 11:59 PM 84 69 70 /52 75 / 24 10.6  (NE) 7 26.4 mph 24° @ 1252 PM 0.8 or 0.03 0.10 5.7 44 0
Earth 9WSW 11:59 PM 84 69 70 /52 75 / 24 14.9  (E) 13.1 26.5 mph 113° @ 0128 AM 1 or 0.04 0.02 6.1 45.2 0
Endee NM 2SW 11:59 PM 84 69 70 /52 75 / 24 13.1  (E) 10.1 27.6 mph 113° @ 1250 AM 1 or 0.04 0.00 7.2 54.8 0
Estelline 3SSE 11:59 PM 84 69 70 /52 75 / 24 11.4  (E) 7.1 23.6 mph 34° @ 1239 PM 1 or 0.04 0.11 4.4 33.2 0
Floydada 2NNE 11:55 PM 84 69 70 /52 75 / 24 15.6  (E) 12 27.5 mph 45° @ 1100 PM 0.8 or 0.03 0.03 4.4 32.5 0
Fluvanna 3WNW 11:55 PM 84 69 70 /52 75 / 24 12.4  (E) 10 26.8 mph 30° @ 1110 PM 0.8 or 0.03 0.01 5.9 42.1 0
Fort Chadbourne 11:59 PM 84 69 70 /52 75 / 24 8.5  (E) 5 25.8 mph 47° @ 1137 PM 1.3 or 0.05 0.51 7.9 55 0
Fort Lancaster 11:59 PM 84 69 70 /52 75 / 24 8  (E) 4.8 26 mph 47° @ 1155 PM 2.3 or 0.09 0.10 14.4 96.6 0
Fort Lewis CO 11:59 PM 84 69 70 /52 75 / 24 11.6  (N) 9.2 36.1 mph 275° @ 0212 PM 2 or 0.08 0.00 32.2 259.8 0
Fort McKavett 11:59 PM 84 69 70 /52 75 / 24 6.2  (E) 2.9 22 mph 29° @ 1000 PM 0.8 or 0.03 0.09 5.4 36 0
Friona 2NE 11:55 PM 84 69 70 /52 75 / 24 14.2  (E) 11.2 27.2 mph 96° @ 1235 AM 1 or 0.04 0.02 7 52.6 0
Fritch 1WNW 11:59 PM 84 69 70 /52 75 / 24 12.4  (E) 10.4 25.4 mph 77° @ 1223 PM 1 or 0.04 0.00 6.2 48.7 0
Gail 2ESE 11:59 PM 84 69 70 /52 75 / 24 11  (E) 7.3 28.5 mph 41° @ 0940 PM 1.3 or 0.05 0.01 8 56.7 0
Goodlett 3W 11:55 PM 84 69 70 /52 75 / 24 13.4  (E) 10.4 47.8 mph 330° @ 0945 AM 1.3 or 0.05 0.16 4.9 37.4 0
Goodnight 11:59 PM 84 69 70 /52 75 / 24 12.7  (E) 9.7 24.4 mph 23° @ 0218 PM 0.8 or 0.03 0.10 4.7 36.2 0
Graham 5SSW 11:59 PM 84 69 70 /52 75 / 24 13.1  (E) 9.6 35.1 mph 67° @ 0653 AM 0.8 or 0.03 1.25 5.4 39 0
Guadalupe Mtns Natl Park 11:59 PM 84 69 70 /52 75 / 24 9.5  (NE) 7.2 28.5 mph 282° @ 1107 AM 3.3 or 0.13 0.00 31.7 214.9 0
Guthrie 10WSW 11:59 PM 84 69 70 /52 75 / 24 11.2  (E) 7.6 41.7 mph 62° @ 0840 AM 0.8 or 0.03 0.73 4.1 30.3 0
Hackberry 2SSE 11:59 PM 84 69 70 /52 75 / 24 13.1  (E) 10.2 36.9 mph 69° @ 0923 AM 1 or 0.04 0.28 4 30.2 0
Happy 1E 11:59 PM 84 69 70 /52 75 / 24 13.6  (E) 11.1 23.4 mph 92° @ 0106 AM 0.8 or 0.03 0.04 6.4 48.8 0
Hart 3N 11:55 PM 84 69 70 /52 75 / 24 15.9  (E) 12.4 28.3 mph 101° @ 1225 AM 0.8 or 0.03 0.01 7.3 54.6 0
Haskell 1NW 11:55 PM 84 69 70 /52 75 / 24 10.9  (E) 8.5 24 mph 355° @ 0810 PM 1 or 0.04 0.86 4.7 34.3 0
Hefner 1SW 11:59 PM 84 69 70 /52 75 / 24 11.8  (E) 8.1 31.4 mph 78° @ 1047 AM 0.8 or 0.03 0.76 4.2 31.2 0
Hereford 2NW 11:55 PM 84 69 70 /52 75 / 24 12.3  (E) 10.2 22.4 mph 39° @ 1050 PM 0.8 or 0.03 0.06 6.1 46.2 0
Hobbs NM 5NW 11:59 PM 84 69 70 /52 75 / 24 10  (SE) 6.2 43.3 mph 158° @ 0433 AM 1 or 0.04 0.84 8.5 60.4 0
Jayton 1SSE 11:55 PM 84 69 70 /52 75 / 24 10.2  (E) 7.6 23.2 mph 14° @ 0940 PM 1 or 0.04 0.64 5.1 37.2 0
Junction 1SSW 11:59 PM 84 69 70 /52 75 / 24 7.2  (NE) 5.6 20.4 mph 22° @ 1147 PM 1 or 0.04 0.03 5.9 39.2 0
Kent 9E 11:59 PM 84 69 70 /52 75 / 24 11.5  (E) 8.3 33 mph 232° @ 1158 AM 4.8 or 0.19 0.00 30.7 205.3 5
Knox City 3NW 11:59 PM 84 69 70 /52 75 / 24 9.7  (E) 7.2 29.6 mph 69° @ 0921 AM 0.8 or 0.03 0.91 3.4 24.7 0
Lake Alan Henry 1NW 11:59 PM 84 69 70 /52 75 / 24 10.2  (E) 6.6 22.6 mph 44° @ 1029 PM 0.8 or 0.03 0.49 4.7 34 0
Lake McClellan 2NW 11:59 PM 84 69 70 /52 75 / 24 15.8  (NE) 12 26.8 mph 31° @ 0138 PM 1 or 0.04 0.12 5.3 40.7 0
Lamesa 1S 11:55 PM 84 69 70 /52 75 / 24 11.4  (E) 7.8 24.9 mph 54° @ 0925 PM 1.3 or 0.05 0.01 1.7 59.6 0
Lesley 2S 11:59 PM 84 69 70 /52 75 / 24 13.8  (E) 10 23.4 mph 43° @ 1126 AM 1 or 0.04 0.02 7.1 54 0
Levelland 4S 11:59 PM 84 69 70 /52 75 / 24 15.2  (SE) 12.7 30.7 mph 116° @ 1221 AM 0.8 or 0.03 0.02 6.4 46.8 0
Lomax 1SSE 11:59 PM 84 69 70 /52 75 / 24 12  (E) 9.5 25.8 mph 94° @ 0923 AM 1.8 or 0.07 0.00 9.4 65.4 0
Lubbock 3WNW TTU 11:55 PM 84 69 70 /52 75 / 24 11.2  (E) 7.8 27.2 mph 114° @ 1220 AM 1 or 0.04 0.01 5.5 40 0
McAdoo 3NNW 11:59 PM 84 69 70 /52 75 / 24 15.1  (E) 10.7 39.5 mph 83° @ 0806 AM 0.5 or 0.02 0.11 4.2 31.2 0
McCamey 1SSW 11:59 PM 84 69 70 /52 75 / 24 12.7  (E) 11.1 30.2 mph 64° @ 0520 PM 3.6 or 0.14 0.00 24.5 165.8 0
McLean 1E 11:55 PM 84 69 70 /52 75 / 24 12.4  (NE) 9.3 28 mph 27° @ 0100 PM 0.8 or 0.03 0.11 5.5 43 0
Memphis 1NE 11:59 PM 84 69 70 /52 75 / 24 11.9  (NE) 9.5 26.3 mph 9° @ 1236 PM 1 or 0.04 0.03 6.5 49.6 0
Menard 2NW 11:59 PM 84 69 70 /52 75 / 24 7  (NE) 5.8 22 mph 31° @ 1022 PM 0.8 or 0.03 0.11 3.8 25.8 0
Mertzon 3NNE 11:59 PM 84 69 70 /52 75 / 24 8.5  (E) 6.1 22.3 mph 36° @ 0827 PM 1.5 or 0.06 0.18 9.6 65.4 0
Morton 1ENE 11:55 PM 84 69 70 /52 75 / 24 14.7  (SE) 10.7 29.8 mph 113° @ 1255 AM 1 or 0.04 0.01 7 51.5 0
Muleshoe 2SSW 11:55 PM 84 69 70 /52 75 / 24 13.5  (E) 10.8 28.5 mph 122° @ 0145 AM 1 or 0.04 0.02 7.1 53 0
New Home 11:59 PM 84 69 70 /52 75 / 24 11.4  (E) 9 25.1 mph 56° @ 1124 PM 0.5 or 0.02 0.18 5.4 38.8 0
Northfield 1S 11:55 PM 84 69 70 /52 75 / 24 10.8  (E) 7.7 23.2 mph 48° @ 0835 AM 1 or 0.04 0.11 3.7 28 0
O'Donnell 1N 11:59 PM 84 69 70 /52 75 / 24 13.5  (E) 10.6 32.9 mph 39° @ 1052 PM 0.8 or 0.03 0.91 7.2 51.8 0
Odell 4ENE 11:59 PM 84 69 70 /52 75 / 24 12.7  (E) 8.9 41.1 mph 87° @ 1009 AM 1.3 or 0.05 0.19 6.1 46.7 0
Olton 6S 11:55 PM 84 69 70 /52 75 / 24 15.2  (E) 12.3 27.9 mph 100° @ 1225 AM 0.8 or 0.03 0.02 6.1 45.5 0
Paducah 10SW 11:59 PM 84 69 70 /52 75 / 24 13.2  (E) 8.4 41.7 mph 70° @ 0900 AM 0.8 or 0.03 0.28 4.2 31.3 0
Palo Duro 4E (JA Ranch) 11:59 PM 84 69 70 /52 75 / 24 11.9  (E) 8.6 21.9 mph 25° @ 0430 PM 1 or 0.04 0.08 5.7 44.1 0
Palo Duro Canyon SP Floor 11:59 PM 84 69 70 /52 75 / 24 4.4  (SE) 2 24.9 mph 87° @ 0706 AM 0.8 or 0.03 0.05 5.1 39.4 0
Palo Duro Canyon State Park Rim 11:59 PM 84 69 70 /52 75 / 24 8.4  (E) 4.9 19.1 mph 24° @ 1215 PM 0.8 or 0.03 0.06 3.8 29 0
Palo Duro Reservoir 1NW 11:59 PM 84 69 70 /52 75 / 24 12.7  (E) 9.8 27.1 mph 99° @ 1203 AM 1 or 0.04 0.00 4.7 38.3 0
Pampa 2E 11:55 PM 84 69 70 /52 75 / 24 12.5  (NE) 9.7 24.2 mph 24° @ 1235 PM 1 or 0.04 0.09 6.3 49.3 0
Panhandle 1SSW 11:59 PM 84 69 70 /52 75 / 24 13.9  (E) 11 22.1 mph 42° @ 1235 PM 0.8 or 0.03 0.11 5.3 41.4 0
Plains 3N 11:55 PM 84 69 70 /52 75 / 24 13.7  (SE) 11.4 29 mph 118° @ 1230 AM 1 or 0.04 0.00 8.6 62.1 0
Plainview 1S 11:59 PM 84 69 70 /52 75 / 24 12.4  (E) 9.8 25.2 mph 36° @ 1125 PM 0.8 or 0.03 0.04 5.5 40.9 0
Post 1NE 11:59 PM 84 69 70 /52 75 / 24 10.9  (E) 6.5 25.2 mph 48° @ 1114 PM 0.8 or 0.03 0.69 4.5 32.6 0
Ralls 1SE 11:59 PM 84 69 70 /52 75 / 24 14.8  (E) 11.8 35.1 mph 97° @ 0733 AM 0.8 or 0.03 0.09 4.9 35.7 0
Reese Center 11:59 PM 84 69 70 /52 75 / 24 14.9  (E) 10.6 29.6 mph 108° @ 1226 AM 0.8 or 0.03 0.01 5.8 42.3 0
Roaring Springs 3N 11:59 PM 84 69 70 /52 75 / 24 12.6  (E) 9.1 38.4 mph 58° @ 0823 AM 0.8 or 0.03 0.25 3.5 25.8 0
Romero 11SSW 11:59 PM 84 69 70 /52 75 / 24 13.8  (E) 10.6 26.5 mph 70° @ 0612 PM 1 or 0.04 0.02 8.5 66.4 0
Rotan 5W 11:59 PM 84 69 70 /52 75 / 24 13.2  (E) 10.9 25.3 mph 36° @ 1051 PM 1 or 0.04 0.06 7.9 56.9 0
San Angelo 7NW 11:55 PM 84 69 70 /52 75 / 24 9.2  (E) 6 21 mph 26° @ 0630 PM 1.8 or 0.07 0.08 9.3 64.1 0
Seagraves 1SW 11:59 PM 84 69 70 /52 75 / 24 9.4  (E) 6.8 26.3 mph 51° @ 0740 PM 1 or 0.04 0.57 7.9 56.6 0
Segovia 7SSW 11:59 PM 84 69 70 /52 75 / 24 7.3  (NE) 5.1 19.6 mph 0° @ 0121 PM 1 or 0.04 0.01 6.5 43 0
Seminole 2NNE 11:55 PM 84 69 70 /52 75 / 24 13.2  (E) 10.1 26.6 mph 42° @ 0700 PM 1 or 0.04 0.36 1.4 49.3 0
Seymour 3NW 11:55 PM 84 69 70 /52 75 / 24 10.9  (E) 7.9 26.7 mph 296° @ 1125 AM 0.8 or 0.03 0.96 3.3 24.2 0
Sierra Blanca 1SSE 11:59 PM 84 69 70 /52 75 / 24 10.9  (S) 8.4 29.8 mph 277° @ 1129 AM 4.1 or 0.16 0.00 28.7 191.4 8
Silverton 7ESE 11:55 PM 84 69 70 /52 75 / 24 14  (E) 10.5 23 mph 68° @ 1205 AM 0.8 or 0.03 0.06 3.7 27.9 0
Slaton 2NE 11:59 PM 84 69 70 /52 75 / 24 11.9  (E) 9.5 27.4 mph 40° @ 1152 PM 0.8 or 0.03 0.11 4.7 33.9 0
Smyer 11:59 PM 84 69 70 /52 75 / 24 13.5  (E) 10 25.5 mph 106° @ 1211 AM 0.8 or 0.03 0.04 5.8 42.1 0
Snyder 3E 11:55 PM 84 69 70 /52 75 / 24 12.7  (E) 6.3 27.6 mph 30° @ 1020 PM 1.3 or 0.05 0.02 7 50.1 0
Snyder 3SSW 11:59 PM 84 69 70 /52 75 / 24 12.5  (E) 8.3 28.9 mph 26° @ 0908 PM 1 or 0.04 0.01 7.8 55.6 0
South Plains 3ENE 11:59 PM 84 69 70 /52 75 / 24 12.9  (E) 9.9 24.6 mph 50° @ 0826 AM 0.8 or 0.03 0.04 3.8 28.6 0
Spur 1W 11:55 PM 84 69 70 /52 75 / 24 11.1  (E) 9.5 28.3 mph 77° @ 0805 AM 1 or 0.04 1.63 5.8 42.2 0
St. Lawrence 5SW 11:59 PM 84 69 70 /52 75 / 24 14.1  (E) 11.9 30.7 mph 40° @ 0910 PM 2 or 0.08 0.01 10.8 74.1 0
Stamford 5ESE 11:59 PM 84 69 70 /52 75 / 24 10.9  (E) 7.9 24.1 mph 325° @ 0841 AM 0.8 or 0.03 0.68 5.4 38.7 0
Sterling City 4WSW 11:59 PM 84 69 70 /52 75 / 24 7.8  (NE) 5.7 21 mph 20° @ 0536 PM 1.5 or 0.06 0.02 8 55.6 0
Stinnett 1NNW 11:59 PM 84 69 70 /52 75 / 24 12.6  (E) 10 22.7 mph 60° @ 0530 AM 0.8 or 0.03 0.01 5.6 44.2 0
Stratford 4WNW 11:59 PM 84 69 70 /52 75 / 24 13.5  (E) 10.2 26.7 mph 86° @ 1106 AM 0.5 or 0.02 0.03 5.1 41.4 0
Sundown 8WSW 11:55 PM 84 69 70 /52 75 / 24 12.9  (SE) 7.8 29.8 mph 107° @ 0520 AM 1 or 0.04 0.04 6.1 44.1 0
Sweetwater 11SW 11:59 PM 84 69 70 /52 75 / 24 12.5  (E) 9 26.8 mph 27° @ 0924 PM 1 or 0.04 0.20 5.8 40.9 0
Tahoka 3NNE 11:59 PM 84 69 70 /52 75 / 24 12.3  (E) 8.7 24 mph 58° @ 0916 PM 0.8 or 0.03 0.36 5.2 37.4 0
Tarzan 2WNW 11:59 PM 84 69 70 /52 75 / 24 14.4  (E) 10.1 27 mph 44° @ 0823 PM 1.5 or 0.06 0.00 9.4 66.1 0
Tatum NM 2SW 11:55 PM 84 69 70 /52 75 / 24 15.5  (SE) 10.5 31.4 mph 134° @ 0145 AM 1.5 or 0.06 0.02 10.6 75.6 0
Throckmorton 1SW 11:59 PM 84 69 70 /52 75 / 24 7.5  (E) 4 24.3 mph 306° @ 0901 AM 0.8 or 0.03 0.43 4.4 32 0
Truscott 2SE 11:59 PM 84 69 70 /52 75 / 24 10.8  (E) 7.5 29 mph 82° @ 1008 AM 0.8 or 0.03 0.70 3.6 26.7 0
Tulia 2ENE 11:55 PM 84 69 70 /52 75 / 24 13.8  (E) 11 23.1 mph 84° @ 1230 AM 1 or 0.04 0.03 4.9 37.2 0
Turkey 2WSW 11:55 PM 84 69 70 /52 75 / 24 13.3  (NE) 10.2 22 mph 31° @ 1105 PM 1 or 0.04 0.03 3.7 28.1 0
Umbarger 3NNE 11:59 PM 84 69 70 /52 75 / 24 12.8  (E) 10.1 22.4 mph 37° @ 1225 PM 0.8 or 0.03 0.04 5 38.4 0
Van Horn 3ENE 11:59 PM 84 69 70 /52 75 / 24 9.8  (NE) 7.2 32.2 mph 292° @ 1129 AM 4.1 or 0.16 0.00 32 213.8 3
Vega 4E 11:59 PM 84 69 70 /52 75 / 24 13.4  (E) 10.8 25.2 mph 94° @ 1217 AM 0.8 or 0.03 0.02 6.5 50.2 0
Vigo Park 11:59 PM 84 69 70 /52 75 / 24 13.2  (E) 9.2 23.2 mph 34° @ 1236 PM 0.8 or 0.03 0.11 4.8 36.6 0
Wall 2E 11:59 PM 84 69 70 /52 75 / 24 12  (E) 9.9 26.5 mph 30° @ 0756 PM 1.5 or 0.06 0.12 6.7 46 0
Weinert 2NNE 11:59 PM 84 69 70 /52 75 / 24 9.8  (E) 7.6 24.9 mph 10° @ 0757 PM 1 or 0.04 0.77 3.7 27.4 0
Welch 11:59 PM 84 69 70 /52 75 / 24 11.5  (E) 8.2 25.3 mph 51° @ 0828 PM 0.8 or 0.03 0.71 7.3 52.4 0
Wellington 6SE 11:59 PM 84 69 70 /52 75 / 24 15.1  (NE) 12 28.5 mph 24° @ 0211 PM 1.3 or 0.05 0.03 6.9 52.8 0
White River Lake 6NW 11:59 PM 84 69 70 /52 75 / 24 12.5  (E) 8.6 36.2 mph 56° @ 0753 AM 0.8 or 0.03 0.12 5 36.9 0
Wolfforth 6SSW 11:59 PM 84 69 70 /52 75 / 24 14.5  (SE) 11.8 31.8 mph 113° @ 0612 AM 0.8 or 0.03 0.04 6.1 44.5 0

WestTexas Mesonet Home    Site Map/Menu  National Weather Service Lubbock   Soil Data   Latest Observation Page   Previous  Date   Next Last